sensor_id;sensor_type;location;lat;lon;timestamp;P1;durP1;ratioP1;P2;durP2;ratioP2
64669;SDS011;51080;51.690;5.174;2022-10-01T00:05:33;10.30;;;8.40;;
64669;SDS011;51080;51.690;5.174;2022-10-01T00:11:23;11.40;;;7.80;;
64669;SDS011;51080;51.690;5.174;2022-10-01T00:17:14;10.50;;;7.60;;
64669;SDS011;51080;51.690;5.174;2022-10-01T00:23:04;15.40;;;8.50;;
64669;SDS011;51080;51.690;5.174;2022-10-01T00:28:55;12.90;;;8.00;;
64669;SDS011;51080;51.690;5.174;2022-10-01T00:34:47;12.30;;;7.90;;
64669;SDS011;51080;51.690;5.174;2022-10-01T00:40:36;13.40;;;8.20;;
64669;SDS011;51080;51.690;5.174;2022-10-01T00:46:27;17.00;;;8.00;;
64669;SDS011;51080;51.690;5.174;2022-10-01T00:52:21;14.30;;;7.30;;
64669;SDS011;51080;51.690;5.174;2022-10-01T00:58:13;11.90;;;8.20;;
64669;SDS011;51080;51.690;5.174;2022-10-01T01:04:01;12.30;;;8.90;;
64669;SDS011;51080;51.690;5.174;2022-10-01T01:09:51;12.90;;;8.30;;
64669;SDS011;51080;51.690;5.174;2022-10-01T01:15:46;10.00;;;7.20;;
64669;SDS011;51080;51.690;5.174;2022-10-01T01:21:43;11.30;;;7.80;;
64669;SDS011;51080;51.690;5.174;2022-10-01T01:27:42;8.50;;;5.50;;
64669;SDS011;51080;51.690;5.174;2022-10-01T01:33:41;8.60;;;5.90;;
64669;SDS011;51080;51.690;5.174;2022-10-01T01:39:35;6.20;;;4.50;;
64669;SDS011;51080;51.690;5.174;2022-10-01T01:45:26;5.00;;;3.70;;
64669;SDS011;51080;51.690;5.174;2022-10-01T01:51:18;6.30;;;4.60;;
64669;SDS011;51080;51.690;5.174;2022-10-01T01:57:12;7.10;;;4.90;;
64669;SDS011;51080;51.690;5.174;2022-10-01T02:03:02;5.80;;;4.10;;
64669;SDS011;51080;51.690;5.174;2022-10-01T02:09:02;6.50;;;3.30;;
64669;SDS011;51080;51.690;5.174;2022-10-01T02:21:09;5.60;;;3.30;;
64669;SDS011;51080;51.690;5.174;2022-10-01T02:27:07;5.00;;;3.00;;
64669;SDS011;51080;51.690;5.174;2022-10-01T02:32:59;5.00;;;3.20;;
64669;SDS011;51080;51.690;5.174;2022-10-01T02:38:50;2.70;;;1.90;;
64669;SDS011;51080;51.690;5.174;2022-10-01T02:44:43;4.30;;;2.90;;
64669;SDS011;51080;51.690;5.174;2022-10-01T02:50:48;3.50;;;2.30;;
64669;SDS011;51080;51.690;5.174;2022-10-01T02:56:40;3.50;;;2.40;;
64669;SDS011;51080;51.690;5.174;2022-10-01T03:02:29;3.90;;;2.20;;
64669;SDS011;51080;51.690;5.174;2022-10-01T03:08:27;3.80;;;2.20;;
64669;SDS011;51080;51.690;5.174;2022-10-01T03:14:17;3.70;;;2.20;;
64669;SDS011;51080;51.690;5.174;2022-10-01T03:20:06;3.20;;;2.20;;
64669;SDS011;51080;51.690;5.174;2022-10-01T03:25:55;6.70;;;3.10;;
64669;SDS011;51080;51.690;5.174;2022-10-01T03:31:43;4.60;;;3.10;;
64669;SDS011;51080;51.690;5.174;2022-10-01T03:37:31;3.90;;;2.50;;
64669;SDS011;51080;51.690;5.174;2022-10-01T03:43:20;4.90;;;2.70;;
64669;SDS011;51080;51.690;5.174;2022-10-01T03:49:09;3.90;;;2.70;;
64669;SDS011;51080;51.690;5.174;2022-10-01T03:54:57;3.60;;;3.10;;
64669;SDS011;51080;51.690;5.174;2022-10-01T04:00:45;3.40;;;3.00;;
64669;SDS011;51080;51.690;5.174;2022-10-01T04:06:33;4.10;;;3.00;;
64669;SDS011;51080;51.690;5.174;2022-10-01T04:12:22;4.00;;;2.80;;
64669;SDS011;51080;51.690;5.174;2022-10-01T04:18:11;3.80;;;2.40;;
64669;SDS011;51080;51.690;5.174;2022-10-01T04:24:00;4.00;;;2.70;;
64669;SDS011;51080;51.690;5.174;2022-10-01T04:29:50;3.30;;;1.90;;
64669;SDS011;51080;51.690;5.174;2022-10-01T04:35:40;3.20;;;2.50;;
64669;SDS011;51080;51.690;5.174;2022-10-01T04:41:30;3.30;;;2.70;;
64669;SDS011;51080;51.690;5.174;2022-10-01T04:47:19;3.50;;;3.00;;
64669;SDS011;51080;51.690;5.174;2022-10-01T04:53:06;4.50;;;3.50;;
64669;SDS011;51080;51.690;5.174;2022-10-01T04:58:54;4.60;;;3.70;;
64669;SDS011;51080;51.690;5.174;2022-10-01T05:04:46;4.60;;;4.10;;
64669;SDS011;51080;51.690;5.174;2022-10-01T05:10:34;4.90;;;3.50;;
64669;SDS011;51080;51.690;5.174;2022-10-01T05:16:22;10.10;;;6.10;;
64669;SDS011;51080;51.690;5.174;2022-10-01T05:22:10;8.50;;;7.60;;
64669;SDS011;51080;51.690;5.174;2022-10-01T05:28:00;10.00;;;6.70;;
64669;SDS011;51080;51.690;5.174;2022-10-01T05:33:49;9.80;;;8.30;;
64669;SDS011;51080;51.690;5.174;2022-10-01T05:39:37;22.00;;;12.30;;
64669;SDS011;51080;51.690;5.174;2022-10-01T05:45:23;13.10;;;11.10;;
64669;SDS011;51080;51.690;5.174;2022-10-01T05:51:06;14.80;;;11.50;;
64669;SDS011;51080;51.690;5.174;2022-10-01T05:56:50;21.00;;;14.60;;
64669;SDS011;51080;51.690;5.174;2022-10-01T06:03:05;16.90;;;13.80;;
64669;SDS011;51080;51.690;5.174;2022-10-01T06:08:49;20.90;;;15.50;;
64669;SDS011;51080;51.690;5.174;2022-10-01T06:14:33;19.30;;;16.80;;
64669;SDS011;51080;51.690;5.174;2022-10-01T06:20:18;21.80;;;17.40;;
64669;SDS011;51080;51.690;5.174;2022-10-01T06:26:03;21.20;;;17.30;;
64669;SDS011;51080;51.690;5.174;2022-10-01T06:31:48;21.00;;;18.20;;
64669;SDS011;51080;51.690;5.174;2022-10-01T06:37:35;18.70;;;15.60;;
64669;SDS011;51080;51.690;5.174;2022-10-01T06:43:19;17.90;;;14.80;;
64669;SDS011;51080;51.690;5.174;2022-10-01T06:49:04;23.80;;;15.20;;
64669;SDS011;51080;51.690;5.174;2022-10-01T06:54:48;19.70;;;15.70;;
64669;SDS011;51080;51.690;5.174;2022-10-01T07:00:34;22.50;;;15.70;;
64669;SDS011;51080;51.690;5.174;2022-10-01T07:06:19;21.50;;;14.40;;
64669;SDS011;51080;51.690;5.174;2022-10-01T07:12:02;18.30;;;13.60;;
64669;SDS011;51080;51.690;5.174;2022-10-01T07:17:47;20.40;;;14.10;;
64669;SDS011;51080;51.690;5.174;2022-10-01T07:24:03;21.50;;;13.50;;
64669;SDS011;51080;51.690;5.174;2022-10-01T07:29:46;21.40;;;14.50;;
64669;SDS011;51080;51.690;5.174;2022-10-01T07:35:30;18.30;;;12.10;;
64669;SDS011;51080;51.690;5.174;2022-10-01T07:41:13;13.00;;;8.80;;
64669;SDS011;51080;51.690;5.174;2022-10-01T07:47:06;18.60;;;10.20;;
64669;SDS011;51080;51.690;5.174;2022-10-01T07:52:50;10.60;;;5.90;;
64669;SDS011;51080;51.690;5.174;2022-10-01T07:58:38;7.90;;;4.70;;
64669;SDS011;51080;51.690;5.174;2022-10-01T08:04:23;8.00;;;4.80;;
64669;SDS011;51080;51.690;5.174;2022-10-01T08:10:07;8.70;;;4.80;;
64669;SDS011;51080;51.690;5.174;2022-10-01T08:15:52;10.80;;;3.90;;
64669;SDS011;51080;51.690;5.174;2022-10-01T08:21:37;9.70;;;4.40;;
64669;SDS011;51080;51.690;5.174;2022-10-01T08:27:23;9.90;;;5.20;;
64669;SDS011;51080;51.690;5.174;2022-10-01T08:33:09;11.30;;;5.10;;
64669;SDS011;51080;51.690;5.174;2022-10-01T08:38:56;12.10;;;6.10;;
64669;SDS011;51080;51.690;5.174;2022-10-01T08:44:42;14.50;;;7.00;;
64669;SDS011;51080;51.690;5.174;2022-10-01T08:50:33;14.50;;;8.10;;
64669;SDS011;51080;51.690;5.174;2022-10-01T08:56:33;19.80;;;10.30;;
64669;SDS011;51080;51.690;5.174;2022-10-01T09:02:23;19.30;;;10.90;;
64669;SDS011;51080;51.690;5.174;2022-10-01T09:20:44;14.90;;;4.60;;
64669;SDS011;51080;51.690;5.174;2022-10-01T09:27:08;13.80;;;3.80;;
64669;SDS011;51080;51.690;5.174;2022-10-01T09:33:02;10.60;;;2.90;;
64669;SDS011;51080;51.690;5.174;2022-10-01T09:38:58;13.20;;;3.60;;
64669;SDS011;51080;51.690;5.174;2022-10-01T09:44:50;13.80;;;3.20;;
64669;SDS011;51080;51.690;5.174;2022-10-01T09:50:34;16.50;;;3.70;;
64669;SDS011;51080;51.690;5.174;2022-10-01T09:56:24;12.10;;;2.90;;
64669;SDS011;51080;51.690;5.174;2022-10-01T10:02:22;13.30;;;2.50;;
64669;SDS011;51080;51.690;5.174;2022-10-01T10:14:15;10.10;;;2.70;;
64669;SDS011;51080;51.690;5.174;2022-10-01T10:20:07;10.30;;;2.30;;
64669;SDS011;51080;51.690;5.174;2022-10-01T10:26:00;11.10;;;2.60;;
64669;SDS011;51080;51.690;5.174;2022-10-01T10:31:45;12.80;;;3.00;;
64669;SDS011;51080;51.690;5.174;2022-10-01T10:37:31;11.40;;;2.90;;
64669;SDS011;51080;51.690;5.174;2022-10-01T10:43:20;9.90;;;2.20;;
64669;SDS011;51080;51.690;5.174;2022-10-01T10:49:10;12.70;;;2.60;;
64669;SDS011;51080;51.690;5.174;2022-10-01T10:55:35;12.90;;;2.10;;
64669;SDS011;51080;51.690;5.174;2022-10-01T11:01:28;12.30;;;2.50;;
64669;SDS011;51080;51.690;5.174;2022-10-01T11:07:17;11.90;;;2.80;;
64669;SDS011;51080;51.690;5.174;2022-10-01T11:13:15;8.10;;;2.10;;
64669;SDS011;51080;51.690;5.174;2022-10-01T11:25:27;11.00;;;2.30;;
64669;SDS011;51080;51.690;5.174;2022-10-01T11:31:25;10.10;;;2.60;;
64669;SDS011;51080;51.690;5.174;2022-10-01T11:43:26;11.00;;;2.60;;
64669;SDS011;51080;51.690;5.174;2022-10-01T11:49:49;9.00;;;2.10;;
64669;SDS011;51080;51.690;5.174;2022-10-01T12:01:44;12.40;;;2.80;;
64669;SDS011;51080;51.690;5.174;2022-10-01T12:07:42;9.50;;;2.10;;
64669;SDS011;51080;51.690;5.174;2022-10-01T12:13:41;8.90;;;2.30;;
64669;SDS011;51080;51.690;5.174;2022-10-01T12:19:31;9.10;;;2.20;;
64669;SDS011;51080;51.690;5.174;2022-10-01T12:25:25;8.30;;;2.00;;
64669;SDS011;51080;51.690;5.174;2022-10-01T12:31:32;10.20;;;2.10;;
64669;SDS011;51080;51.690;5.174;2022-10-01T12:43:56;7.40;;;2.00;;
64669;SDS011;51080;51.690;5.174;2022-10-01T13:02:22;10.50;;;2.30;;
64669;SDS011;51080;51.690;5.174;2022-10-01T13:08:23;8.70;;;2.10;;
64669;SDS011;51080;51.690;5.174;2022-10-01T13:14:19;11.70;;;2.60;;
64669;SDS011;51080;51.690;5.174;2022-10-01T13:20:05;13.60;;;2.60;;
64669;SDS011;51080;51.690;5.174;2022-10-01T13:25:58;8.30;;;2.10;;
64669;SDS011;51080;51.690;5.174;2022-10-01T13:32:21;10.10;;;2.10;;
64669;SDS011;51080;51.690;5.174;2022-10-01T13:38:15;10.60;;;2.20;;
64669;SDS011;51080;51.690;5.174;2022-10-01T13:50:04;10.10;;;1.90;;
64669;SDS011;51080;51.690;5.174;2022-10-01T13:55:55;12.00;;;2.60;;
64669;SDS011;51080;51.690;5.174;2022-10-01T14:08:20;8.10;;;1.90;;
64669;SDS011;51080;51.690;5.174;2022-10-01T14:20:22;10.20;;;2.30;;
64669;SDS011;51080;51.690;5.174;2022-10-01T14:26:20;11.70;;;2.50;;
64669;SDS011;51080;51.690;5.174;2022-10-01T14:39:10;11.30;;;2.50;;
64669;SDS011;51080;51.690;5.174;2022-10-01T14:45:14;13.40;;;2.40;;
64669;SDS011;51080;51.690;5.174;2022-10-01T14:51:01;14.30;;;2.50;;
64669;SDS011;51080;51.690;5.174;2022-10-01T14:56:47;15.00;;;2.70;;
64669;SDS011;51080;51.690;5.174;2022-10-01T15:02:33;13.30;;;2.40;;
64669;SDS011;51080;51.690;5.174;2022-10-01T15:08:37;12.00;;;2.30;;
64669;SDS011;51080;51.690;5.174;2022-10-01T15:14:20;12.20;;;2.40;;
64669;SDS011;51080;51.690;5.174;2022-10-01T15:20:08;12.30;;;2.50;;
64669;SDS011;51080;51.690;5.174;2022-10-01T15:25:55;11.50;;;2.60;;
64669;SDS011;51080;51.690;5.174;2022-10-01T15:31:43;11.30;;;2.60;;
64669;SDS011;51080;51.690;5.174;2022-10-01T15:37:33;12.60;;;2.60;;
64669;SDS011;51080;51.690;5.174;2022-10-01T15:43:23;10.60;;;2.20;;
64669;SDS011;51080;51.690;5.174;2022-10-01T15:49:17;11.90;;;2.70;;
64669;SDS011;51080;51.690;5.174;2022-10-01T15:55:04;8.60;;;2.20;;
64669;SDS011;51080;51.690;5.174;2022-10-01T16:01:08;9.70;;;2.40;;
64669;SDS011;51080;51.690;5.174;2022-10-01T16:06:56;10.10;;;2.60;;
64669;SDS011;51080;51.690;5.174;2022-10-01T16:12:40;13.30;;;2.70;;
64669;SDS011;51080;51.690;5.174;2022-10-01T16:18:25;11.40;;;2.70;;
64669;SDS011;51080;51.690;5.174;2022-10-01T16:24:25;11.10;;;2.50;;
64669;SDS011;51080;51.690;5.174;2022-10-01T16:30:10;16.90;;;3.10;;
64669;SDS011;51080;51.690;5.174;2022-10-01T16:36:07;13.90;;;2.80;;
64669;SDS011;51080;51.690;5.174;2022-10-01T16:41:56;10.60;;;2.80;;
64669;SDS011;51080;51.690;5.174;2022-10-01T16:47:45;11.40;;;2.80;;
64669;SDS011;51080;51.690;5.174;2022-10-01T16:54:01;11.40;;;2.60;;
64669;SDS011;51080;51.690;5.174;2022-10-01T16:59:46;15.10;;;2.80;;
64669;SDS011;51080;51.690;5.174;2022-10-01T17:05:32;10.60;;;2.50;;
64669;SDS011;51080;51.690;5.174;2022-10-01T17:11:19;11.90;;;2.70;;
64669;SDS011;51080;51.690;5.174;2022-10-01T17:17:06;10.40;;;2.70;;
64669;SDS011;51080;51.690;5.174;2022-10-01T17:22:50;13.80;;;2.90;;
64669;SDS011;51080;51.690;5.174;2022-10-01T17:28:34;13.60;;;2.60;;
64669;SDS011;51080;51.690;5.174;2022-10-01T17:34:20;12.50;;;2.40;;
64669;SDS011;51080;51.690;5.174;2022-10-01T17:40:05;12.60;;;3.00;;
64669;SDS011;51080;51.690;5.174;2022-10-01T17:45:54;12.70;;;2.70;;
64669;SDS011;51080;51.690;5.174;2022-10-01T17:51:39;14.60;;;2.90;;
64669;SDS011;51080;51.690;5.174;2022-10-01T17:57:24;12.90;;;2.60;;
64669;SDS011;51080;51.690;5.174;2022-10-01T18:03:08;11.70;;;2.30;;
64669;SDS011;51080;51.690;5.174;2022-10-01T18:08:53;12.00;;;2.40;;
64669;SDS011;51080;51.690;5.174;2022-10-01T18:14:37;13.10;;;2.90;;
64669;SDS011;51080;51.690;5.174;2022-10-01T18:20:22;13.70;;;3.00;;
64669;SDS011;51080;51.690;5.174;2022-10-01T18:26:08;13.80;;;3.20;;
64669;SDS011;51080;51.690;5.174;2022-10-01T18:31:54;13.00;;;3.00;;
64669;SDS011;51080;51.690;5.174;2022-10-01T18:37:49;13.50;;;3.00;;
64669;SDS011;51080;51.690;5.174;2022-10-01T18:43:35;10.60;;;2.80;;
64669;SDS011;51080;51.690;5.174;2022-10-01T18:49:31;11.30;;;2.60;;
64669;SDS011;51080;51.690;5.174;2022-10-01T18:55:25;13.30;;;2.90;;
64669;SDS011;51080;51.690;5.174;2022-10-01T19:07:31;15.30;;;2.70;;
64669;SDS011;51080;51.690;5.174;2022-10-01T19:13:29;16.00;;;3.40;;
64669;SDS011;51080;51.690;5.174;2022-10-01T19:31:40;17.70;;;3.40;;
64669;SDS011;51080;51.690;5.174;2022-10-01T19:37:56;13.80;;;3.20;;
64669;SDS011;51080;51.690;5.174;2022-10-01T19:44:02;15.50;;;3.00;;
64669;SDS011;51080;51.690;5.174;2022-10-01T19:50:00;15.20;;;2.80;;
64669;SDS011;51080;51.690;5.174;2022-10-01T19:55:57;13.30;;;3.10;;
64669;SDS011;51080;51.690;5.174;2022-10-01T20:01:55;14.60;;;3.10;;
64669;SDS011;51080;51.690;5.174;2022-10-01T20:08:15;18.40;;;3.70;;
64669;SDS011;51080;51.690;5.174;2022-10-01T20:20:55;17.50;;;3.90;;
64669;SDS011;51080;51.690;5.174;2022-10-01T20:27:03;16.50;;;3.30;;
64669;SDS011;51080;51.690;5.174;2022-10-01T20:33:05;18.80;;;3.50;;
64669;SDS011;51080;51.690;5.174;2022-10-01T20:39:11;21.20;;;3.50;;
64669;SDS011;51080;51.690;5.174;2022-10-01T20:45:22;17.90;;;4.40;;
64669;SDS011;51080;51.690;5.174;2022-10-01T20:57:47;16.60;;;3.30;;
64669;SDS011;51080;51.690;5.174;2022-10-01T21:03:58;15.90;;;3.60;;
64669;SDS011;51080;51.690;5.174;2022-10-01T21:10:02;20.70;;;3.80;;
64669;SDS011;51080;51.690;5.174;2022-10-01T21:22:14;17.50;;;4.10;;
64669;SDS011;51080;51.690;5.174;2022-10-01T21:40:58;20.10;;;4.80;;
64669;SDS011;51080;51.690;5.174;2022-10-01T21:47:02;20.10;;;4.90;;
64669;SDS011;51080;51.690;5.174;2022-10-01T22:05:54;16.90;;;4.80;;
64669;SDS011;51080;51.690;5.174;2022-10-01T22:12:00;24.20;;;4.90;;
64669;SDS011;51080;51.690;5.174;2022-10-01T22:17:52;23.50;;;5.40;;
64669;SDS011;51080;51.690;5.174;2022-10-01T22:23:46;18.70;;;5.80;;
64669;SDS011;51080;51.690;5.174;2022-10-01T22:29:49;25.50;;;5.60;;
64669;SDS011;51080;51.690;5.174;2022-10-01T22:41:44;26.10;;;6.30;;
64669;SDS011;51080;51.690;5.174;2022-10-01T22:54:00;23.60;;;6.10;;
64669;SDS011;51080;51.690;5.174;2022-10-01T23:00:04;28.10;;;6.00;;
64669;SDS011;51080;51.690;5.174;2022-10-01T23:12:24;27.80;;;7.30;;
64669;SDS011;51080;51.690;5.174;2022-10-01T23:31:04;28.10;;;10.60;;
64669;SDS011;51080;51.690;5.174;2022-10-01T23:43:24;28.60;;;11.00;;
64669;SDS011;51080;51.690;5.174;2022-10-01T23:49:17;27.90;;;10.70;;
64669;SDS011;51080;51.690;5.174;2022-10-01T23:55:12;28.50;;;10.40;;
